Time;durP1;ratioP1;P1;durP2;ratioP2;P2;SDS_P1;SDS_P2;PMS_P1;PMS_P2;Temp;Humidity;BMP_temperature;BMP_pressure;BME280_temperature;BME280_humidity;BME280_pressure;Samples;Min_cycle;Max_cycle;Signal;HPM_P1;HPM_P2
2021/12/09 00:00:32;;;;;;;38.47;24.00;;;;;;;0.80;85.84;100170.03;5038476;28;20232;-57
2021/12/09 00:03:05;;;;;;;39.17;22.33;;;;;;;1.12;84.07;100179.63;5040361;28;21035;-56
2021/12/09 00:05:33;;;;;;;42.40;22.03;;;;;;;0.90;85.17;100187.56;5040590;28;20228;-57
2021/12/09 00:07:59;;;;;;;36.47;23.00;;;;;;;0.79;83.97;100174.34;5040771;28;20238;-55
2021/12/09 00:10:26;;;;;;;40.83;24.67;;;;;;;0.72;82.42;100167.25;5039480;28;20255;-55
2021/12/09 00:12:52;;;;;;;36.00;22.13;;;;;;;1.05;85.18;100166.44;5040822;28;20230;-55
2021/12/09 00:15:19;;;;;;;37.40;23.10;;;;;;;1.28;84.76;100160.22;5039701;28;20236;-53
2021/12/09 00:17:45;;;;;;;38.87;23.40;;;;;;;1.27;82.89;100150.72;5038347;28;20765;-57
2021/12/09 00:20:13;;;;;;;36.47;21.73;;;;;;;1.10;83.67;100149.38;5040987;28;20253;-57
2021/12/09 00:22:39;;;;;;;41.53;23.33;;;;;;;1.35;82.06;100150.91;5040986;28;20310;-57
2021/12/09 00:25:06;;;;;;;40.80;22.80;;;;;;;0.92;83.34;100142.00;5041495;28;20303;-55
2021/12/09 00:27:33;;;;;;;35.97;22.63;;;;;;;0.74;84.96;100157.84;5042531;28;22672;-58
2021/12/09 00:29:59;;;;;;;47.00;24.23;;;;;;;0.64;86.19;100146.34;5044406;28;20266;-57
2021/12/09 00:32:26;;;;;;;38.40;24.73;;;;;;;0.65;86.19;100142.06;5043442;28;20242;-58
2021/12/09 00:34:52;;;;;;;40.73;23.27;;;;;;;1.23;85.47;100145.41;5044004;28;20278;-58
2021/12/09 00:37:29;;;;;;;41.83;25.83;;;;;;;1.26;82.77;100137.72;5043608;28;20776;-55
2021/12/09 00:39:56;;;;;;;43.70;27.10;;;;;;;0.83;84.15;100131.38;5038622;28;20234;-57
2021/12/09 00:42:24;;;;;;;39.97;22.90;;;;;;;1.40;81.92;100132.09;5043893;28;20258;-58
2021/12/09 00:44:51;;;;;;;48.63;25.60;;;;;;;0.62;82.16;100147.13;5044365;28;20256;-56
2021/12/09 00:47:18;;;;;;;42.23;26.47;;;;;;;0.97;83.56;100130.06;5044224;28;20231;-56
2021/12/09 00:49:45;;;;;;;45.07;26.43;;;;;;;0.59;83.34;100137.59;5041394;28;20231;-57
2021/12/09 00:52:12;;;;;;;45.03;25.67;;;;;;;0.14;85.03;100142.22;5048501;28;20261;-55
2021/12/09 00:54:42;;;;;;;41.83;25.90;;;;;;;0.59;87.08;100149.63;5048448;28;20257;-56
2021/12/09 00:57:09;;;;;;;47.63;26.77;;;;;;;0.71;83.91;100142.25;5043358;28;20592;-56
2021/12/09 00:59:35;;;;;;;45.43;26.40;;;;;;;0.71;84.69;100142.25;5043191;28;20261;-56
2021/12/09 01:02:02;;;;;;;46.70;26.73;;;;;;;0.61;83.99;100135.06;5043685;28;20234;-55
2021/12/09 01:04:28;;;;;;;38.53;24.87;;;;;;;0.76;83.51;100132.91;5043144;28;20246;-56
2021/12/09 01:06:55;;;;;;;48.67;26.77;;;;;;;0.73;83.54;100142.28;5044380;28;20282;-56
2021/12/09 01:09:21;;;;;;;44.43;26.67;;;;;;;0.17;85.93;100143.19;5046420;28;20299;-56
2021/12/09 01:11:49;;;;;;;51.43;27.13;;;;;;;0.45;84.90;100142.34;5043736;28;20962;-55
2021/12/09 01:14:15;;;;;;;46.47;26.40;;;;;;;0.37;85.27;100148.97;5044438;28;20283;-56
2021/12/09 01:16:41;;;;;;;50.00;27.73;;;;;;;0.48;84.91;100145.00;5043504;28;20235;-56
2021/12/09 01:19:08;;;;;;;48.17;28.07;;;;;;;0.97;83.27;100153.31;5043560;28;20253;-55
2021/12/09 01:21:34;;;;;;;44.93;25.23;;;;;;;1.01;81.17;100151.69;5044117;28;20273;-57
2021/12/09 01:24:01;;;;;;;47.57;26.63;;;;;;;1.38;82.26;100148.41;5044005;28;20228;-57
2021/12/09 01:26:28;;;;;;;42.83;25.43;;;;;;;1.59;80.68;100155.84;5041137;28;20297;-58
2021/12/09 01:29:03;;;;;;;47.97;26.47;;;;;;;0.89;81.59;100167.75;5043705;28;20271;-57
2021/12/09 01:31:34;;;;;;;46.00;24.20;;;;;;;1.02;82.43;100158.59;5043485;28;20417;-56
2021/12/09 01:34:02;;;;;;;50.63;26.47;;;;;;;1.26;80.25;100169.63;5043456;28;20228;-57
2021/12/09 01:36:29;;;;;;;48.63;28.00;;;;;;;1.66;80.31;100171.56;5043408;28;20245;-57
2021/12/09 01:38:55;;;;;;;42.57;25.47;;;;;;;1.12;79.69;100178.72;5043694;28;20235;-58
2021/12/09 01:41:22;;;;;;;47.67;25.03;;;;;;;0.74;83.29;100181.09;5048019;28;20235;-57
2021/12/09 01:43:49;;;;;;;44.20;23.57;;;;;;;1.61;80.55;100187.78;5043264;28;20961;-57
2021/12/09 01:46:20;;;;;;;45.43;27.63;;;;;;;0.90;80.16;100188.44;5042467;28;20266;-57
2021/12/09 01:48:48;;;;;;;42.97;26.20;;;;;;;1.06;83.08;100173.38;5043097;28;20234;-56
2021/12/09 01:51:14;;;;;;;48.37;27.63;;;;;;;0.34;82.84;100174.72;5042849;28;20269;-55
2021/12/09 01:53:41;;;;;;;47.10;25.50;;;;;;;0.50;85.19;100164.88;5042968;28;20236;-57
2021/12/09 01:56:10;;;;;;;45.57;25.17;;;;;;;1.13;83.03;100172.72;5040707;28;20264;-56
2021/12/09 01:58:37;;;;;;;43.83;26.40;;;;;;;0.70;83.45;100169.78;5043590;28;20259;-57
2021/12/09 02:01:04;;;;;;;53.40;27.97;;;;;;;0.41;85.28;100165.44;5036807;28;20267;-57
2021/12/09 02:03:33;;;;;;;48.43;28.63;;;;;;;0.70;83.89;100166.31;5042224;28;20258;-57
2021/12/09 02:06:00;;;;;;;49.43;28.57;;;;;;;0.74;83.51;100155.25;5042173;28;20258;-57
2021/12/09 02:08:26;;;;;;;49.60;26.87;;;;;;;1.03;82.67;100160.38;5041038;28;20255;-57
2021/12/09 02:10:53;;;;;;;49.50;27.93;;;;;;;0.77;83.08;100164.78;5042320;28;20251;-57
2021/12/09 02:13:20;;;;;;;46.07;27.70;;;;;;;0.39;83.85;100164.53;5044578;28;20311;-55
2021/12/09 02:15:48;;;;;;;47.70;28.03;;;;;;;0.42;85.20;100154.28;5042586;28;20592;-56
2021/12/09 02:18:15;;;;;;;48.50;28.13;;;;;;;-0.04;84.33;100163.16;5042146;28;20246;-55
2021/12/09 02:20:44;;;;;;;50.33;29.43;;;;;;;-0.42;87.60;100152.50;5045278;22;20233;-52
2021/12/09 02:23:16;;;;;;;41.83;25.60;;;;;;;0.23;87.24;100147.69;5024797;28;20232;-53
2021/12/09 02:25:44;;;;;;;45.03;26.20;;;;;;;-0.23;87.63;100142.78;5015654;28;20223;-50
2021/12/09 02:28:12;;;;;;;45.13;27.53;;;;;;;0.18;88.83;100141.53;5015786;28;20235;-53
2021/12/09 02:30:39;;;;;;;48.40;27.67;;;;;;;0.57;84.13;100149.59;5017136;28;20276;-54
2021/12/09 02:33:05;;;;;;;50.17;28.63;;;;;;;0.77;83.27;100152.72;5023303;28;20359;-52
2021/12/09 02:35:32;;;;;;;50.33;27.10;;;;;;;0.68;83.95;100152.50;5021896;28;20235;-51
2021/12/09 02:38:00;;;;;;;45.43;24.03;;;;;;;0.78;81.40;100157.09;5018129;28;20226;-52
2021/12/09 02:40:26;;;;;;;46.87;27.67;;;;;;;0.39;85.28;100155.09;5024985;28;20305;-54
2021/12/09 02:42:53;;;;;;;46.57;26.67;;;;;;;0.82;85.06;100161.50;5023578;28;20231;-53
2021/12/09 02:45:20;;;;;;;51.20;29.50;;;;;;;0.46;84.40;100162.19;5025978;28;20341;-53
2021/12/09 02:47:47;;;;;;;46.77;28.63;;;;;;;1.19;83.86;100142.75;5029518;28;20228;-52
2021/12/09 02:50:13;;;;;;;55.53;28.30;;;;;;;0.76;84.05;100156.16;5027525;28;20228;-51
2021/12/09 02:52:39;;;;;;;51.47;28.47;;;;;;;0.30;86.24;100144.47;5024916;28;20227;-52
2021/12/09 02:55:08;;;;;;;51.63;27.43;;;;;;;0.54;84.17;100156.38;5021347;28;20232;-53
2021/12/09 02:57:35;;;;;;;51.03;30.30;;;;;;;0.45;84.19;100147.50;5021535;28;20720;-50
2021/12/09 03:00:02;;;;;;;45.90;25.53;;;;;;;0.62;84.60;100160.91;5030290;28;20255;-54
2021/12/09 03:02:28;;;;;;;48.50;26.47;;;;;;;0.80;83.21;100157.13;5027465;28;20266;-53
2021/12/09 03:04:58;;;;;;;48.43;27.10;;;;;;;0.37;84.74;100156.72;5026303;28;20388;-53
2021/12/09 03:07:29;;;;;;;49.07;27.70;;;;;;;0.70;84.68;100155.97;5027163;28;21099;-53
2021/12/09 03:09:59;;;;;;;53.57;27.63;;;;;;;0.71;84.50;100158.63;5032043;28;20270;-53
2021/12/09 03:12:30;;;;;;;44.17;25.73;;;;;;;0.70;84.95;100153.38;5028162;28;20228;-53
2021/12/09 03:14:57;;;;;;;49.07;28.23;;;;;;;0.86;82.36;100155.59;5031114;28;20227;-53
2021/12/09 03:17:23;;;;;;;55.23;29.77;;;;;;;0.70;82.73;100161.13;5044008;28;20273;-53
2021/12/09 03:19:50;;;;;;;52.33;29.97;;;;;;;0.69;82.99;100149.06;5037530;28;20722;-57
2021/12/09 03:22:17;;;;;;;49.50;27.23;;;;;;;0.51;82.44;100149.41;5039587;28;20267;-54
2021/12/09 03:24:43;;;;;;;47.07;27.43;;;;;;;0.96;83.59;100149.00;5023382;28;20348;-55
2021/12/09 03:27:10;;;;;;;43.90;26.97;;;;;;;0.62;83.81;100152.31;5027025;28;20240;-53
2021/12/09 03:29:40;;;;;;;52.93;28.37;;;;;;;0.80;83.60;100144.22;5028637;28;20235;-54
2021/12/09 03:32:09;;;;;;;47.77;26.03;;;;;;;0.69;83.40;100149.06;5025541;28;20247;-53
2021/12/09 03:34:36;;;;;;;46.00;28.77;;;;;;;0.63;84.43;100144.63;5031854;28;20242;-51
2021/12/09 03:37:07;;;;;;;50.30;29.33;;;;;;;0.76;83.21;100153.56;5030079;28;20251;-53
2021/12/09 03:39:36;;;;;;;45.17;26.57;;;;;;;0.64;85.77;100159.28;5026483;28;20260;-51
2021/12/09 03:42:03;;;;;;;47.07;27.30;;;;;;;0.67;84.06;100150.75;5028344;28;20235;-55
2021/12/09 03:44:30;;;;;;;47.47;29.13;;;;;;;1.16;81.44;100149.56;5022169;28;20239;-54
2021/12/09 03:47:00;;;;;;;49.47;26.83;;;;;;;0.87;83.16;100149.59;5025291;28;20288;-50
2021/12/09 03:49:26;;;;;;;49.63;31.03;;;;;;;0.56;82.78;100154.69;5023696;28;20766;-53
2021/12/09 03:51:54;;;;;;;44.87;26.17;;;;;;;1.18;83.09;100148.72;5026726;28;20316;-53
2021/12/09 03:54:22;;;;;;;45.93;26.93;;;;;;;1.23;83.00;100148.88;5029810;28;20270;-53
2021/12/09 03:56:48;;;;;;;54.27;29.50;;;;;;;0.81;81.96;100152.03;5027692;28;20345;-54
2021/12/09 03:59:15;;;;;;;44.87;27.10;;;;;;;0.73;85.56;100156.06;5028017;28;20236;-52
2021/12/09 04:01:43;;;;;;;58.40;28.70;;;;;;;0.36;85.31;100143.78;5030154;28;20638;-53
2021/12/09 04:04:11;;;;;;;50.27;28.47;;;;;;;0.64;85.39;100150.66;5033088;28;20224;-54
2021/12/09 04:06:37;;;;;;;45.17;28.77;;;;;;;0.23;87.13;100145.97;5038717;28;20607;-55
2021/12/09 04:09:05;;;;;;;51.60;28.10;;;;;;;0.80;84.78;100146.78;5035100;28;22563;-52
2021/12/09 04:11:32;;;;;;;47.87;28.87;;;;;;;0.48;83.88;100142.44;5031355;28;20245;-55
2021/12/09 04:13:58;;;;;;;47.17;28.03;;;;;;;0.41;82.94;100149.94;5052873;28;20224;-53
2021/12/09 04:16:24;;;;;;;47.03;27.23;;;;;;;0.76;83.82;100147.53;5048911;28;20238;-51
2021/12/09 04:18:51;;;;;;;50.80;28.40;;;;;;;0.76;84.80;100145.81;5032214;28;20803;-53
2021/12/09 04:21:18;;;;;;;48.50;27.50;;;;;;;0.74;84.87;100152.69;5021778;28;20300;-55
2021/12/09 04:23:45;;;;;;;54.17;29.30;;;;;;;0.27;84.29;100144.38;5026202;28;20259;-52
2021/12/09 04:26:11;;;;;;;49.17;28.93;;;;;;;0.82;84.49;100143.44;5031606;28;20260;-54
2021/12/09 04:28:38;;;;;;;53.33;28.57;;;;;;;0.53;85.73;100146.84;5026560;28;20265;-53
2021/12/09 04:31:05;;;;;;;53.53;29.13;;;;;;;0.19;83.80;100151.88;5027890;28;20258;-53
2021/12/09 04:33:32;;;;;;;52.57;28.93;;;;;;;-0.09;85.71;100151.84;5028984;28;20231;-54
2021/12/09 04:35:59;;;;;;;47.47;29.23;;;;;;;0.57;86.81;100148.72;5042108;28;20228;-56
2021/12/09 04:38:27;;;;;;;43.60;26.83;;;;;;;0.48;83.13;100159.63;5044301;28;20749;-52
2021/12/09 04:40:54;;;;;;;48.07;28.43;;;;;;;0.48;84.07;100155.34;5046310;28;20239;-53
2021/12/09 04:43:20;;;;;;;47.03;27.70;;;;;;;0.64;83.56;100150.66;5044739;28;20243;-54
2021/12/09 04:45:47;;;;;;;51.20;28.20;;;;;;;0.36;82.92;100159.28;5044305;28;20266;-54
2021/12/09 04:48:13;;;;;;;49.63;28.30;;;;;;;-0.16;87.04;100170.53;5043364;28;20276;-52
2021/12/09 04:50:42;;;;;;;48.63;27.07;;;;;;;-0.16;88.76;100173.97;5047428;28;20289;-53
2021/12/09 04:53:08;;;;;;;48.33;26.87;;;;;;;-0.12;88.92;100170.66;5046638;28;20241;-52
2021/12/09 04:55:36;;;;;;;51.67;29.77;;;;;;;0.17;87.23;100174.16;5046942;28;20273;-53
2021/12/09 04:58:07;;;;;;;47.47;25.93;;;;;;;0.58;87.23;100182.34;5046510;28;20708;-53
2021/12/09 05:00:37;;;;;;;47.93;27.37;;;;;;;0.49;85.00;100182.03;5047498;28;20231;-55
2021/12/09 05:03:06;;;;;;;44.90;26.93;;;;;;;0.74;85.48;100173.34;5051563;28;20247;-55
2021/12/09 05:05:37;;;;;;;50.43;28.40;;;;;;;0.59;83.82;100172.88;5041506;28;20245;-54
2021/12/09 05:08:05;;;;;;;47.73;27.30;;;;;;;1.01;85.49;100187.88;5031978;28;20255;-53
2021/12/09 05:10:34;;;;;;;40.97;26.80;;;;;;;0.27;84.09;100190.84;5024542;28;20266;-54
2021/12/09 05:13:03;;;;;;;47.23;27.13;;;;;;;0.60;84.29;100205.63;5020358;28;20315;-52
2021/12/09 05:15:31;;;;;;;48.90;28.17;;;;;;;1.27;83.36;100207.59;5026521;28;20582;-49
2021/12/09 05:17:57;;;;;;;48.70;27.53;;;;;;;0.83;84.26;100209.78;5032596;28;20236;-53
2021/12/09 05:20:23;;;;;;;42.90;25.20;;;;;;;0.83;84.76;100204.59;5024737;28;21946;-51
2021/12/09 05:22:50;;;;;;;39.17;25.67;;;;;;;0.75;83.41;100211.25;5026432;28;20258;-52
2021/12/09 05:25:16;;;;;;;45.37;25.20;;;;;;;0.90;84.59;100201.38;5026126;28;20258;-52
2021/12/09 05:27:42;;;;;;;47.97;27.53;;;;;;;0.63;83.39;100198.84;5025430;28;20266;-53
2021/12/09 05:30:12;;;;;;;43.63;25.77;;;;;;;0.83;83.50;100193.41;5024296;28;20251;-54
2021/12/09 05:32:38;;;;;;;50.10;26.77;;;;;;;0.77;83.04;100183.75;5026208;28;20332;-53
2021/12/09 05:35:05;;;;;;;51.10;27.50;;;;;;;0.81;84.64;100201.13;5025154;28;20348;-53
2021/12/09 05:37:31;;;;;;;44.10;27.97;;;;;;;0.57;84.04;100210.72;5025840;28;20297;-53
2021/12/09 05:39:59;;;;;;;44.67;27.73;;;;;;;0.52;84.85;100207.09;5024124;28;20270;-52
2021/12/09 05:42:26;;;;;;;47.67;27.00;;;;;;;0.72;85.54;100198.25;5026918;28;20224;-51
2021/12/09 05:44:53;;;;;;;41.23;26.90;;;;;;;0.84;85.04;100201.22;5027760;28;20785;-52
2021/12/09 05:47:21;;;;;;;49.50;25.83;;;;;;;0.91;86.22;100220.31;5026404;28;20227;-55
2021/12/09 05:49:49;;;;;;;43.27;24.87;;;;;;;0.88;83.69;100215.97;5025287;28;20257;-54
2021/12/09 05:52:16;;;;;;;46.67;25.97;;;;;;;1.07;83.37;100208.75;5036335;28;20273;-52
2021/12/09 05:54:43;;;;;;;48.23;27.07;;;;;;;1.10;83.01;100208.81;5025919;28;20233;-55
2021/12/09 05:57:10;;;;;;;45.83;26.27;;;;;;;0.99;84.75;100215.41;5026976;28;20248;-52
2021/12/09 05:59:40;;;;;;;44.73;26.20;;;;;;;1.03;83.15;100212.94;5026184;28;20293;-54
2021/12/09 06:02:07;;;;;;;46.37;27.47;;;;;;;0.78;85.81;100213.94;5024675;28;20258;-53
2021/12/09 06:04:35;;;;;;;42.93;25.87;;;;;;;0.23;86.72;100201.91;5022183;28;20239;-52
2021/12/09 06:07:01;;;;;;;50.20;27.83;;;;;;;0.63;86.54;100187.63;5029992;28;20321;-54
2021/12/09 06:09:27;;;;;;;52.43;27.00;;;;;;;1.02;85.03;100192.19;5035211;28;20231;-52
2021/12/09 06:11:54;;;;;;;47.90;27.20;;;;;;;0.80;85.09;100188.13;5028654;28;20228;-54
2021/12/09 06:14:20;;;;;;;47.50;25.97;;;;;;;0.66;86.03;100198.94;5029679;28;20247;-54
2021/12/09 06:16:46;;;;;;;49.77;25.33;;;;;;;1.25;86.02;100193.72;5034050;28;20228;-53
2021/12/09 06:19:13;;;;;;;38.87;23.20;;;;;;;1.12;86.34;100210.63;5025479;28;20237;-50
2021/12/09 06:21:41;;;;;;;46.83;25.60;;;;;;;1.08;86.00;100221.69;5025507;28;20265;-52
2021/12/09 06:24:07;;;;;;;43.47;26.03;;;;;;;1.07;83.89;100230.28;5025506;28;20235;-52
2021/12/09 06:26:34;;;;;;;50.97;25.77;;;;;;;1.04;86.51;100226.75;5025279;28;20250;-53
2021/12/09 06:29:00;;;;;;;44.60;26.80;;;;;;;0.86;86.09;100203.81;5024499;28;20436;-52
2021/12/09 06:31:27;;;;;;;48.17;28.33;;;;;;;0.99;86.38;100202.47;5030680;28;20242;-55
2021/12/09 06:33:54;;;;;;;49.40;27.00;;;;;;;0.53;87.56;100208.84;5025861;28;20334;-51
2021/12/09 06:36:20;;;;;;;45.90;23.27;;;;;;;1.24;86.31;100198.88;5029453;28;20602;-53
2021/12/09 06:38:48;;;;;;;48.17;25.83;;;;;;;1.12;86.44;100205.47;5032275;28;20629;-52
2021/12/09 06:41:15;;;;;;;43.50;26.37;;;;;;;1.76;82.54;100192.53;5019348;28;20239;-54
2021/12/09 06:43:41;;;;;;;47.00;27.67;;;;;;;1.26;83.48;100200.66;5027293;28;20261;-52
2021/12/09 06:46:11;;;;;;;43.93;26.63;;;;;;;1.04;87.49;100198.31;5023674;28;20239;-51
2021/12/09 06:48:38;;;;;;;47.67;28.10;;;;;;;0.70;87.88;100186.97;5024544;28;20278;-54
2021/12/09 06:51:05;;;;;;;46.40;27.10;;;;;;;0.99;88.40;100194.72;5023887;28;20305;-53
2021/12/09 06:53:32;;;;;;;44.60;26.70;;;;;;;0.57;92.21;100190.03;5025689;28;20239;-52
2021/12/09 06:56:00;;;;;;;44.57;27.83;;;;;;;-0.09;94.42;100191.41;5024928;28;20254;-52
2021/12/09 06:58:27;;;;;;;56.10;29.37;;;;;;;-0.18;95.90;100206.56;5021201;28;20232;-52
2021/12/09 07:00:55;;;;;;;51.43;28.70;;;;;;;-0.31;96.70;100204.44;5026143;28;20329;-53
2021/12/09 07:03:22;;;;;;;49.83;27.87;;;;;;;0.57;95.63;100195.22;5026037;28;20306;-56
2021/12/09 07:05:49;;;;;;;46.50;26.60;;;;;;;1.49;91.46;100182.31;5026650;28;20598;-52
2021/12/09 07:08:16;;;;;;;44.27;25.77;;;;;;;1.89;88.10;100195.44;5026546;28;20252;-53
2021/12/09 07:10:43;;;;;;;43.23;26.67;;;;;;;0.69;91.36;100216.22;5027075;28;20290;-53
2021/12/09 07:13:10;;;;;;;49.27;27.13;;;;;;;0.70;91.61;100207.63;5027619;28;20244;-53
2021/12/09 07:15:37;;;;;;;49.77;28.40;;;;;;;1.28;89.27;100209.34;5028643;28;20292;-51
2021/12/09 07:18:04;;;;;;;45.60;28.03;;;;;;;1.43;90.01;100207.16;5033122;28;20234;-53
2021/12/09 07:20:32;;;;;;;42.43;25.57;;;;;;;1.90;87.55;100196.34;5031640;28;20236;-54
2021/12/09 07:22:59;;;;;;;44.73;27.10;;;;;;;0.85;89.15;100213.28;5029772;28;20267;-53
2021/12/09 07:25:28;;;;;;;50.07;28.17;;;;;;;0.60;91.99;100222.00;5030353;28;20293;-52
2021/12/09 07:27:54;;;;;;;48.43;27.47;;;;;;;0.79;94.08;100217.41;5034433;28;20258;-52
2021/12/09 07:30:23;;;;;;;47.43;28.83;;;;;;;0.29;94.51;100215.00;5028776;28;20978;-53
2021/12/09 07:32:50;;;;;;;45.73;28.20;;;;;;;0.11;96.68;100209.25;5033409;28;20725;-52
2021/12/09 07:35:17;;;;;;;54.47;28.03;;;;;;;0.58;95.74;100218.50;5036566;28;20236;-55
2021/12/09 07:37:45;;;;;;;53.03;31.13;;;;;;;0.46;94.53;100213.84;5050021;28;20227;-55
2021/12/09 07:40:14;;;;;;;46.23;27.93;;;;;;;1.31;92.59;100224.06;5053881;28;20243;-56
2021/12/09 07:42:41;;;;;;;52.77;30.40;;;;;;;1.53;90.57;100231.56;5042852;28;20280;-52
2021/12/09 07:45:09;;;;;;;50.67;27.47;;;;;;;1.09;94.81;100233.81;5038807;28;20231;-52
2021/12/09 07:47:37;;;;;;;55.53;31.80;;;;;;;0.63;93.90;100210.88;5041460;28;21015;-56
2021/12/09 07:50:05;;;;;;;56.03;31.93;;;;;;;0.59;93.95;100206.44;5050214;28;20219;-51
2021/12/09 07:52:31;;;;;;;53.20;29.37;;;;;;;1.26;93.45;100226.50;5058080;28;20216;-53
2021/12/09 07:54:58;;;;;;;50.87;28.30;;;;;;;0.06;95.86;100232.31;5049758;28;20217;-58
2021/12/09 07:57:24;;;;;;;55.87;30.20;;;;;;;0.23;100.00;100245.78;5055532;28;20261;-62
2021/12/09 07:59:50;;;;;;;50.43;30.03;;;;;;;0.28;98.74;100239.09;5052437;28;20238;-51
2021/12/09 08:02:17;;;;;;;53.20;30.03;;;;;;;0.07;98.06;100248.66;5047778;28;20308;-55
2021/12/09 08:04:45;;;;;;;52.80;29.87;;;;;;;0.86;98.21;100255.50;5044189;28;20250;-54
2021/12/09 08:07:11;;;;;;;63.07;30.83;;;;;;;0.55;98.24;100253.69;5044004;28;20294;-54
2021/12/09 08:09:37;;;;;;;50.40;27.40;;;;;;;1.14;94.39;100259.78;5039996;28;20236;-54
2021/12/09 08:12:04;;;;;;;54.40;30.23;;;;;;;0.92;93.11;100255.69;5038720;28;20238;-52
2021/12/09 08:14:31;;;;;;;49.17;28.70;;;;;;;0.79;95.77;100246.69;5027948;28;20256;-56
2021/12/09 08:17:10;;;;;;;52.03;29.00;;;;;;;0.86;92.90;100256.38;5029246;28;20226;-53
2021/12/09 08:19:37;;;;;;;47.07;29.30;;;;;;;0.82;95.68;100288.13;5025678;28;20320;-55
2021/12/09 08:22:05;;;;;;;53.93;30.10;;;;;;;1.12;93.73;100271.78;5052664;22;21943;-52
2021/12/09 08:24:31;;;;;;;46.30;27.90;;;;;;;1.35;94.64;100255.22;5062795;28;20738;-56
2021/12/09 08:26:57;;;;;;;52.27;27.97;;;;;;;1.10;92.21;100261.41;5065996;28;20265;-56
2021/12/09 08:29:24;;;;;;;48.70;27.90;;;;;;;1.03;93.70;100240.50;5064018;28;20270;-54
2021/12/09 08:31:50;;;;;;;51.03;28.03;;;;;;;0.31;93.50;100228.81;5060226;28;20231;-57
2021/12/09 08:34:17;;;;;;;52.20;29.60;;;;;;;0.77;94.85;100224.22;5050395;28;20777;-53
2021/12/09 08:36:43;;;;;;;54.13;29.63;;;;;;;0.80;97.00;100224.31;5039200;28;20239;-53
2021/12/09 08:39:11;;;;;;;46.97;27.27;;;;;;;1.49;92.36;100224.56;5044909;28;20667;-56
2021/12/09 08:41:39;;;;;;;51.37;29.03;;;;;;;1.20;93.84;100231.53;5045670;28;20246;-55
2021/12/09 08:44:06;;;;;;;49.40;29.27;;;;;;;0.91;92.60;100221.22;5050490;28;20360;-56
2021/12/09 08:46:33;;;;;;;53.73;30.60;;;;;;;0.12;96.13;100231.66;5048549;28;20242;-55
2021/12/09 08:48:59;;;;;;;47.33;28.90;;;;;;;0.03;98.89;100232.22;5038399;28;20263;-55
2021/12/09 08:51:25;;;;;;;46.87;29.23;;;;;;;-0.35;100.00;100242.13;5036909;28;20814;-56
2021/12/09 08:53:53;;;;;;;59.67;30.53;;;;;;;-0.46;100.00;100255.44;5043422;28;20258;-54
2021/12/09 08:56:21;;;;;;;50.07;28.67;;;;;;;-0.13;100.00;100258.34;5042706;28;20233;-56
2021/12/09 08:58:47;;;;;;;55.00;30.13;;;;;;;-0.02;100.00;100250.13;5044945;28;20235;-56
2021/12/09 09:01:15;;;;;;;46.93;28.17;;;;;;;0.90;99.04;100236.66;5045182;28;20656;-56
2021/12/09 09:03:41;;;;;;;48.90;28.20;;;;;;;1.35;96.54;100219.03;5031693;28;20730;-55
2021/12/09 09:06:08;;;;;;;50.73;27.87;;;;;;;1.32;95.21;100241.34;5044203;28;20709;-54
2021/12/09 09:08:34;;;;;;;49.07;30.60;;;;;;;0.40;96.97;100239.47;5042010;28;20263;-56
2021/12/09 09:11:01;;;;;;;53.37;29.80;;;;;;;0.73;98.79;100228.41;5043194;28;20598;-56
2021/12/09 09:13:28;;;;;;;54.77;32.60;;;;;;;0.35;97.82;100211.72;5043871;28;20269;-56
2021/12/09 09:15:55;;;;;;;52.97;32.57;;;;;;;0.04;100.00;100215.06;5061941;28;20258;-56
2021/12/09 09:18:21;;;;;;;56.03;29.83;;;;;;;0.69;100.00;100226.56;5057877;28;20238;-57
2021/12/09 09:20:48;;;;;;;56.53;31.50;;;;;;;1.04;98.08;100239.66;5046677;28;20231;-57
2021/12/09 09:23:18;;;;;;;50.57;27.80;;;;;;;1.06;97.67;100238.88;5043598;28;20254;-56
2021/12/09 09:25:44;;;;;;;51.60;30.13;;;;;;;1.20;96.74;100257.38;5039386;28;20255;-56
2021/12/09 09:28:11;;;;;;;60.37;30.60;;;;;;;1.63;93.95;100248.22;5044286;28;20238;-57
2021/12/09 09:30:43;;;;;;;52.20;30.77;;;;;;;1.82;92.86;100252.19;5044501;28;20242;-55
2021/12/09 09:33:12;;;;;;;47.37;29.80;;;;;;;1.35;90.77;100247.47;5044052;28;20325;-56
2021/12/09 09:35:40;;;;;;;51.47;29.87;;;;;;;1.15;93.64;100251.19;5044833;28;20251;-56
2021/12/09 09:38:07;;;;;;;57.70;30.93;;;;;;;0.66;95.48;100247.13;5042310;28;20400;-56
2021/12/09 09:40:40;;;;;;;47.77;27.77;;;;;;;0.61;100.00;100243.53;5043545;28;20259;-56
2021/12/09 09:43:15;;;;;;;52.87;28.60;;;;;;;1.25;96.39;100232.53;5042905;28;20241;-57
2021/12/09 09:45:43;;;;;;;50.80;28.43;;;;;;;1.59;94.08;100220.53;5046226;28;20245;-59
2021/12/09 09:48:12;;;;;;;46.87;28.10;;;;;;;1.05;92.58;100239.69;5051405;28;20258;-58
2021/12/09 09:50:39;;;;;;;55.23;30.10;;;;;;;0.57;94.04;100237.41;5042867;28;20234;-56
2021/12/09 09:53:08;;;;;;;47.30;30.03;;;;;;;0.36;97.96;100226.41;5043189;28;20282;-57
2021/12/09 09:55:35;;;;;;;52.17;29.50;;;;;;;0.68;99.23;100235.16;5045929;28;20657;-56
2021/12/09 09:58:01;;;;;;;48.40;29.70;;;;;;;0.61;96.97;100222.88;5037639;28;20265;-57
2021/12/09 10:00:28;;;;;;;55.77;30.93;;;;;;;0.78;98.27;100226.84;5043931;28;21074;-52
2021/12/09 10:03:02;;;;;;;56.23;32.60;;;;;;;0.31;97.53;100228.81;5044856;28;20237;-54
2021/12/09 10:05:36;;;;;;;49.97;28.10;;;;;;;0.86;96.90;100227.94;5038790;28;20246;-53
2021/12/09 10:08:02;;;;;;;50.27;29.50;;;;;;;0.93;96.32;100227.31;5043124;28;20224;-54
2021/12/09 10:10:29;;;;;;;54.83;31.37;;;;;;;1.47;93.92;100228.81;5042510;28;20308;-55
2021/12/09 10:12:57;;;;;;;46.97;28.23;;;;;;;2.11;90.82;100221.88;5043133;28;20797;-54
2021/12/09 10:15:39;;;;;;;50.23;28.40;;;;;;;1.47;89.12;100215.88;5039546;28;20661;-55
2021/12/09 10:18:07;;;;;;;49.77;28.43;;;;;;;1.32;91.88;100226.69;5038555;28;20716;-56
2021/12/09 10:20:53;;;;;;;49.60;29.87;;;;;;;1.28;93.01;100230.03;5042854;28;20263;-54
2021/12/09 10:23:42;;;;;;;49.90;29.10;;;;;;;1.45;90.92;100227.91;5041482;28;20264;-53
2021/12/09 10:26:29;;;;;;;52.40;31.27;;;;;;;0.53;93.49;100224.34;5031759;28;20273;-54
2021/12/09 10:29:11;;;;;;;46.97;28.07;;;;;;;1.19;95.82;100232.34;5041826;28;20796;-55
2021/12/09 10:31:42;;;;;;;45.33;28.30;;;;;;;1.48;93.02;100237.47;5039650;28;20232;-54
2021/12/09 10:34:26;;;;;;;47.90;30.00;;;;;;;1.41;90.62;100237.31;5038966;28;20327;-55
2021/12/09 10:37:02;;;;;;;47.97;27.17;;;;;;;1.12;93.80;100240.75;5036353;28;20223;-55
2021/12/09 10:39:32;;;;;;;47.20;28.07;;;;;;;1.30;91.63;100242.97;5042626;28;20395;-55
2021/12/09 10:42:02;;;;;;;46.43;28.40;;;;;;;1.46;90.79;100239.13;5040788;28;20222;-54
2021/12/09 10:44:43;;;;;;;44.43;27.17;;;;;;;0.92;94.26;100241.06;5042230;28;20764;-55
2021/12/09 10:47:14;;;;;;;46.40;28.73;;;;;;;1.29;91.21;100243.81;5040665;28;20239;-54
2021/12/09 10:49:54;;;;;;;47.00;29.50;;;;;;;1.10;91.58;100245.03;5040479;28;20649;-54
2021/12/09 10:52:23;;;;;;;53.08;32.83;;;;;;;0.76;92.49;100248.31;5035064;28;20429;-55
2021/12/09 10:54:49;;;;;;;47.43;29.10;;;;;;;1.27;93.32;100253.28;5043549;28;20711;-54
2021/12/09 10:57:23;;;;;;;43.43;28.40;;;;;;;1.33;92.28;100233.59;5040423;28;20238;-55
2021/12/09 10:59:50;;;;;;;48.70;28.10;;;;;;;0.99;92.50;100225.75;5038445;28;20226;-54
2021/12/09 11:02:16;;;;;;;46.00;29.70;;;;;;;1.22;92.04;100227.25;5037993;28;20272;-54
2021/12/09 11:05:01;;;;;;;51.63;26.13;;;;;;;1.17;91.78;100215.94;5036740;28;20248;-54
2021/12/09 11:07:30;;;;;;;46.40;27.40;;;;;;;1.56;93.70;100202.34;5035602;28;20288;-53
2021/12/09 11:10:18;;;;;;;45.90;32.97;;;;;;;1.90;89.99;100188.56;5035735;28;20522;-54
2021/12/09 11:12:52;;;;;;;49.30;30.93;;;;;;;1.65;89.79;100179.28;5036751;28;20226;-54
2021/12/09 11:15:20;;;;;;;46.37;31.03;;;;;;;0.92;90.53;100189.38;5037279;28;20710;-53
2021/12/09 11:17:49;;;;;;;46.47;28.30;;;;;;;1.05;91.22;100200.06;5043634;28;20256;-54
2021/12/09 11:20:44;;;;;;;43.97;25.60;;;;;;;1.74;90.88;100195.03;5043561;28;20235;-56